METAR Data
IDs: Format: Raw Decoded Include TAF

Data at: 1311 UTC 11 Dec 2018

KCRP 111251Z 01003KT 9SM FEW025 SCT250 05/04 A3040 RMK AO2 SLP295 T00500039
KCRP 111151Z 32003KT 10SM FEW250 04/03 A3040 RMK AO2 SLP294 T00440033 10072 20044 53002
KCRP 111051Z 30004KT 10SM FEW250 04/04 A3040 RMK AO2 SLP294 T00440039
KCRP 110951Z 26004KT 10SM FEW250 04/03 A3039 RMK AO2 SLP292 T00440033
KCRP 110851Z 00000KT 10SM FEW250 05/03 A3040 RMK AO2 SLP292 T00500033 58006
KCRP 110751Z 22004KT 10SM FEW250 06/04 A3040 RMK AO2 SLP295 T00560039
KCRP 110651Z 22005KT 10SM FEW250 06/04 A3041 RMK AO2 SLP299 T00560044
KCRP 110551Z 00000KT 10SM SCT250 07/05 A3041 RMK AO2 SLP298 T00720050 10133 20061 401610033 58003
KCRP 110451Z 00000KT 10SM SCT250 08/05 A3042 RMK AO2 SLP300 T00780050
KCRP 110351Z 16005KT 10SM SCT250 08/05 A3042 RMK AO2 SLP300 T00780050
KCRP 110251Z 17003KT 10SM BKN250 09/07 A3042 RMK AO2 SLP301 T00890067 51015
KCRP 110151Z 00000KT 10SM BKN250 09/07 A3041 RMK AO2 SLP297 T00940067
KCRP 110051Z 16003KT 10SM FEW180 BKN250 11/07 A3040 RMK AO2 SLP293 T01060072
KCRP 102351Z 00000KT 10SM FEW180 BKN250 13/05 A3038 RMK AO2 SLP286 T01330050 10161 20133 53005
KCRP 102251Z 30004KT 10SM FEW180 BKN250 14/06 A3037 RMK AO2 SLP284 T01390061
KCRP 102151Z 33004KT 10SM FEW180 BKN250 15/06 A3036 RMK AO2 SLP281 T01500056
KCRP 102051Z 34008KT 10SM FEW250 16/04 A3036 RMK AO2 SLP281 T01610044 56023
KCRP 101951Z 34010KT 10SM FEW250 16/05 A3038 RMK AO2 SLP286 T01560050
KCRP 101851Z 28006KT 10SM FEW250 13/06 A3040 RMK AO2 SLP293 T01330056
KCRP 101751Z 35006KT 10SM FEW250 14/05 A3043 RMK AO2 SLP304 T01390050 10139 20033 58006
KCRP 101651Z 34005KT 10SM CLR 12/04 A3046 RMK AO2 SLP313 T01220044
KCRP 101551Z 35006KT 10SM CLR 11/04 A3046 RMK AO2 SLP316 T01060044
KCRP 101451Z 34006KT 10SM CLR 08/04 A3045 RMK AO2 SLP311 T00830044 51020
KCRP 101351Z 32006KT 10SM CLR 05/03 A3043 RMK AO2 SLP305 T00500033
KCRP 101251Z 32005KT 10SM CLR 03/03 A3041 RMK AO2 SLP298 T00330028 $
KCRP 101151Z 32005KT 10SM CLR 04/03 A3039 RMK AO2 SLP291 T00390028 10078 20039 53002 $
KCRP 101051Z 30005KT 10SM CLR 04/03 A3038 RMK AO2 SLP286 T00440033 $
KCRP 100951Z 33005KT 10SM CLR 04/03 A3039 RMK AO2 SLP290 T00440033 $
KCRP 100851Z 35004KT 10SM CLR 06/04 A3039 RMK AO2 SLP289 T00560039 57001 $
KCRP 100751Z 03006KT 10SM FEW025 07/04 A3039 RMK AO2 SLP290 T00670039 $
KCRP 100651Z 03007KT 10SM FEW025 07/04 A3038 RMK AO2 SLP289 T00720044 $
KCRP 100551Z 03007KT 10SM FEW025 08/04 A3039 RMK AO2 SLP290 T00780044 10106 20078 401500056 51014 $
KCRP 100451Z 04007KT 10SM CLR 08/05 A3038 RMK AO2 SLP287 T00830050 $
KCRP 100351Z 03004KT 10SM CLR 09/05 A3036 RMK AO2 SLP282 T00890050 $
KCRP 100251Z 04005KT 10SM CLR 08/06 A3035 RMK AO2 SLP276 T00830056 51016 $
KCRP 100151Z 05006KT 10SM CLR 09/05 A3033 RMK AO2 SLP271 T00940050 $